AXY1AZ LKPR-EDDL
Flight info
| Callsign | AXY1AZ |
|---|---|
| Flight time | 1h 7m |
| Altitude | 36000 |
| Route | BALTU4B/30 BALTU DCT DONAD DCT RAPET T843 VELIS DCT AMETU T852 TINSA T854 DOMUX |
| Aircraft | B737/M-SDE1FGHILORVWXY/HB1 |
Departure
| Time | 2026-05-04 18:09 |
|---|---|
| Airport | Václav Havel Airport Prague (LKPR) |
Arrival
| Time | 2026-05-04 19:16 |
|---|---|
| Airport | Düsseldorf Airport (EDDL) |
| Time | Latitude | Longitude | Altitude | Speed | Heading |
|---|---|---|---|---|---|
| 2026-05-04 17:30 | 50.11029 | 14.26774 | 1174 ft | 0 kts | 65° |
| 2026-05-04 17:55 | 50.11029 | 14.26773 | 1179 ft | 0 kts | 65° |
| 2026-05-04 17:55 | 50.11019 | 14.26743 | 1175 ft | 4 kts | 65° |
| 2026-05-04 17:55 | 50.11010 | 14.26716 | 1174 ft | 4 kts | 31° |
| 2026-05-04 17:55 | 50.10990 | 14.26718 | 1174 ft | 4 kts | 329° |
| 2026-05-04 17:56 | 50.10999 | 14.26709 | 1175 ft | 4 kts | 328° |
| 2026-05-04 17:56 | 50.11022 | 14.26687 | 1178 ft | 4 kts | 328° |
| 2026-05-04 17:56 | 50.11034 | 14.26675 | 1179 ft | 0 kts | 328° |
| 2026-05-04 18:01 | 50.11038 | 14.26672 | 1176 ft | 2 kts | 328° |
| 2026-05-04 18:01 | 50.11058 | 14.26635 | 1178 ft | 8 kts | 292° |
| 2026-05-04 18:01 | 50.11053 | 14.26530 | 1174 ft | 12 kts | 231° |
| 2026-05-04 18:02 | 50.10907 | 14.26365 | 1177 ft | 14 kts | 215° |
| 2026-05-04 18:02 | 50.10820 | 14.26270 | 1178 ft | 16 kts | 215° |
| 2026-05-04 18:02 | 50.10728 | 14.26172 | 1179 ft | 18 kts | 214° |
| 2026-05-04 18:02 | 50.10625 | 14.26064 | 1178 ft | 18 kts | 212° |
| 2026-05-04 18:03 | 50.10556 | 14.25996 | 1183 ft | 8 kts | 213° |
| 2026-05-04 18:03 | 50.10513 | 14.25983 | 1186 ft | 5 kts | 168° |
| 2026-05-04 18:03 | 50.10477 | 14.26026 | 1187 ft | 8 kts | 130° |
| 2026-05-04 18:03 | 50.10442 | 14.26096 | 1189 ft | 9 kts | 126° |
| 2026-05-04 18:04 | 50.10400 | 14.26183 | 1190 ft | 11 kts | 127° |
| 2026-05-04 18:04 | 50.10352 | 14.26283 | 1192 ft | 12 kts | 127° |
| 2026-05-04 18:04 | 50.10245 | 14.26507 | 1197 ft | 14 kts | 126° |
| 2026-05-04 18:05 | 50.10186 | 14.26630 | 1199 ft | 15 kts | 127° |
| 2026-05-04 18:05 | 50.10121 | 14.26761 | 1201 ft | 16 kts | 128° |
| 2026-05-04 18:05 | 50.10054 | 14.26902 | 1204 ft | 16 kts | 126° |
| 2026-05-04 18:05 | 50.09984 | 14.27047 | 1207 ft | 17 kts | 127° |
| 2026-05-04 18:06 | 50.09817 | 14.27372 | 1207 ft | 22 kts | 136° |
| 2026-05-04 18:06 | 50.09717 | 14.27526 | 1209 ft | 17 kts | 135° |
| 2026-05-04 18:06 | 50.09632 | 14.27639 | 1210 ft | 14 kts | 161° |
| 2026-05-04 18:07 | 50.09549 | 14.27589 | 1214 ft | 13 kts | 217° |
| 2026-05-04 18:07 | 50.09478 | 14.27506 | 1218 ft | 12 kts | 217° |
| 2026-05-04 18:07 | 50.09427 | 14.27425 | 1221 ft | 10 kts | 261° |
| 2026-05-04 18:07 | 50.09450 | 14.27335 | 1220 ft | 8 kts | 306° |
| 2026-05-04 18:08 | 50.09503 | 14.27224 | 1217 ft | 20 kts | 307° |
| 2026-05-04 18:08 | 50.09725 | 14.26766 | 1218 ft | 85 kts | 307° |
| 2026-05-04 18:08 | 50.10202 | 14.25775 | 1191 ft | 141 kts | 306° |
| 2026-05-04 18:08 | 50.10888 | 14.24453 | 1398 ft | 161 kts | 313° |
| 2026-05-04 18:09 | 50.12384 | 14.21641 | 2330 ft | 184 kts | 306° |
| 2026-05-04 18:09 | 50.13930 | 14.18181 | 3543 ft | 208 kts | 306° |
| 2026-05-04 18:10 | 50.14820 | 14.16315 | 4292 ft | 221 kts | 307° |
| 2026-05-04 18:10 | 50.15770 | 14.14305 | 4969 ft | 240 kts | 305° |
| 2026-05-04 18:10 | 50.16801 | 14.12125 | 5610 ft | 260 kts | 306° |
| 2026-05-04 18:10 | 50.17914 | 14.09787 | 6295 ft | 276 kts | 306° |
| 2026-05-04 18:11 | 50.18968 | 14.07289 | 7270 ft | 275 kts | 292° |
| 2026-05-04 18:11 | 50.19348 | 14.04397 | 8298 ft | 273 kts | 269° |
| 2026-05-04 18:11 | 50.19318 | 14.01427 | 9306 ft | 275 kts | 268° |
| 2026-05-04 18:11 | 50.19314 | 13.98441 | 10275 ft | 277 kts | 268° |
| 2026-05-04 18:12 | 50.19320 | 13.95377 | 10810 ft | 296 kts | 268° |
| 2026-05-04 18:12 | 50.19336 | 13.92014 | 11320 ft | 314 kts | 268° |
| 2026-05-04 18:12 | 50.19355 | 13.88585 | 11970 ft | 325 kts | 268° |
| 2026-05-04 18:12 | 50.19372 | 13.85044 | 12935 ft | 328 kts | 268° |
| 2026-05-04 18:13 | 50.19387 | 13.81462 | 13824 ft | 333 kts | 268° |
| 2026-05-04 18:13 | 50.19403 | 13.77829 | 14668 ft | 337 kts | 268° |
| 2026-05-04 18:13 | 50.19430 | 13.70413 | 16358 ft | 347 kts | 268° |
| 2026-05-04 18:14 | 50.19441 | 13.66620 | 17162 ft | 352 kts | 269° |
| 2026-05-04 18:14 | 50.19451 | 13.62771 | 17970 ft | 357 kts | 269° |
| 2026-05-04 18:14 | 50.19460 | 13.58869 | 18674 ft | 362 kts | 269° |
| 2026-05-04 18:15 | 50.19474 | 13.50982 | 20040 ft | 370 kts | 269° |
| 2026-05-04 18:15 | 50.19483 | 13.42877 | 21420 ft | 377 kts | 269° |
| 2026-05-04 18:15 | 50.19485 | 13.38763 | 22089 ft | 381 kts | 269° |
| 2026-05-04 18:16 | 50.19486 | 13.34610 | 22759 ft | 385 kts | 269° |
| 2026-05-04 18:16 | 50.19486 | 13.30418 | 23418 ft | 388 kts | 269° |
| 2026-05-04 18:16 | 50.19484 | 13.26186 | 23972 ft | 392 kts | 269° |
| 2026-05-04 18:17 | 50.19475 | 13.17627 | 25077 ft | 397 kts | 268° |
| 2026-05-04 18:17 | 50.19468 | 13.13311 | 25609 ft | 400 kts | 268° |
| 2026-05-04 18:17 | 50.19449 | 13.04589 | 26657 ft | 405 kts | 268° |
| 2026-05-04 18:18 | 50.19436 | 13.00182 | 27176 ft | 408 kts | 268° |
| 2026-05-04 18:18 | 50.19423 | 12.95805 | 27682 ft | 410 kts | 268° |
| 2026-05-04 18:18 | 50.19407 | 12.91343 | 28183 ft | 413 kts | 268° |
| 2026-05-04 18:18 | 50.19389 | 12.86853 | 28675 ft | 415 kts | 268° |
| 2026-05-04 18:19 | 50.19349 | 12.77785 | 29632 ft | 420 kts | 269° |
| 2026-05-04 18:19 | 50.19325 | 12.73211 | 30095 ft | 423 kts | 269° |
| 2026-05-04 18:19 | 50.19300 | 12.68610 | 30474 ft | 425 kts | 268° |
| 2026-05-04 18:20 | 50.19272 | 12.63986 | 30878 ft | 427 kts | 268° |
| 2026-05-04 18:20 | 50.19243 | 12.59341 | 31272 ft | 429 kts | 268° |
| 2026-05-04 18:20 | 50.19211 | 12.54673 | 31663 ft | 431 kts | 268° |
| 2026-05-04 18:20 | 50.19178 | 12.49982 | 32035 ft | 433 kts | 268° |
| 2026-05-04 18:21 | 50.19143 | 12.45338 | 32484 ft | 433 kts | 268° |
| 2026-05-04 18:21 | 50.19106 | 12.40644 | 33015 ft | 432 kts | 268° |
| 2026-05-04 18:21 | 50.19073 | 12.35978 | 33546 ft | 430 kts | 269° |
| 2026-05-04 18:21 | 50.19485 | 12.31355 | 34040 ft | 432 kts | 282° |
| 2026-05-04 18:22 | 50.20214 | 12.26813 | 34453 ft | 431 kts | 281° |
| 2026-05-04 18:22 | 50.20904 | 12.22256 | 34841 ft | 431 kts | 281° |
| 2026-05-04 18:22 | 50.21608 | 12.17707 | 35261 ft | 431 kts | 281° |
| 2026-05-04 18:22 | 50.22317 | 12.13168 | 35671 ft | 430 kts | 281° |
| 2026-05-04 18:23 | 50.23028 | 12.08624 | 35948 ft | 432 kts | 281° |
| 2026-05-04 18:23 | 50.23728 | 12.04134 | 35980 ft | 430 kts | 281° |
| 2026-05-04 18:23 | 50.25138 | 11.95094 | 35967 ft | 428 kts | 281° |
| 2026-05-04 18:24 | 50.26543 | 11.86058 | 35968 ft | 428 kts | 281° |
| 2026-05-04 18:24 | 50.27941 | 11.77016 | 35968 ft | 428 kts | 281° |
| 2026-05-04 18:25 | 50.29332 | 11.67969 | 35967 ft | 428 kts | 281° |
| 2026-05-04 18:25 | 50.30700 | 11.58975 | 35968 ft | 428 kts | 280° |
| 2026-05-04 18:26 | 50.32053 | 11.49910 | 35963 ft | 428 kts | 280° |
| 2026-05-04 18:26 | 50.33400 | 11.40852 | 35969 ft | 428 kts | 280° |
| 2026-05-04 18:27 | 50.34741 | 11.31780 | 35968 ft | 428 kts | 280° |
| 2026-05-04 18:27 | 50.36075 | 11.22706 | 35966 ft | 427 kts | 280° |
| 2026-05-04 18:28 | 50.37401 | 11.13625 | 35973 ft | 428 kts | 280° |
| 2026-05-04 18:28 | 50.38712 | 11.04599 | 35969 ft | 428 kts | 280° |
| 2026-05-04 18:29 | 50.40026 | 10.95508 | 35965 ft | 428 kts | 280° |
| 2026-05-04 18:29 | 50.41332 | 10.86408 | 35970 ft | 428 kts | 279° |
| 2026-05-04 18:30 | 50.43280 | 10.72752 | 35970 ft | 428 kts | 279° |
| 2026-05-04 18:31 | 50.44595 | 10.63656 | 35974 ft | 428 kts | 279° |
| 2026-05-04 18:31 | 50.45896 | 10.54605 | 35973 ft | 428 kts | 279° |
| 2026-05-04 18:32 | 50.47393 | 10.45555 | 35969 ft | 431 kts | 288° |
| 2026-05-04 18:32 | 50.49584 | 10.36771 | 35969 ft | 432 kts | 288° |
| 2026-05-04 18:33 | 50.52191 | 10.28312 | 35975 ft | 425 kts | 292° |
| 2026-05-04 18:33 | 50.54745 | 10.19963 | 35973 ft | 423 kts | 291° |
| 2026-05-04 18:34 | 50.57255 | 10.11662 | 35972 ft | 423 kts | 291° |
| 2026-05-04 18:34 | 50.59775 | 10.03292 | 35977 ft | 423 kts | 291° |
| 2026-05-04 18:35 | 50.62290 | 9.94912 | 35974 ft | 423 kts | 291° |
| 2026-05-04 18:35 | 50.64797 | 9.86525 | 35970 ft | 423 kts | 291° |
| 2026-05-04 18:36 | 50.67295 | 9.78140 | 35975 ft | 423 kts | 291° |
| 2026-05-04 18:36 | 50.69791 | 9.69738 | 35977 ft | 423 kts | 291° |
| 2026-05-04 18:37 | 50.72284 | 9.61313 | 35965 ft | 423 kts | 291° |
| 2026-05-04 18:37 | 50.74749 | 9.52950 | 35967 ft | 423 kts | 291° |
| 2026-05-04 18:38 | 50.77226 | 9.44522 | 35919 ft | 421 kts | 290° |
| 2026-05-04 18:38 | 50.78446 | 9.40359 | 35688 ft | 415 kts | 290° |
| 2026-05-04 18:38 | 50.79652 | 9.36238 | 35303 ft | 411 kts | 290° |
| 2026-05-04 18:38 | 50.80853 | 9.32124 | 34554 ft | 414 kts | 290° |
| 2026-05-04 18:39 | 50.82061 | 9.27981 | 34000 ft | 416 kts | 290° |
| 2026-05-04 18:39 | 50.83275 | 9.23812 | 33397 ft | 418 kts | 290° |
| 2026-05-04 18:39 | 50.84491 | 9.19623 | 32795 ft | 420 kts | 290° |
| 2026-05-04 18:39 | 50.85712 | 9.15416 | 32199 ft | 421 kts | 290° |
| 2026-05-04 18:40 | 50.86935 | 9.11191 | 31625 ft | 423 kts | 290° |
| 2026-05-04 18:40 | 50.88155 | 9.06968 | 31124 ft | 421 kts | 290° |
| 2026-05-04 18:40 | 50.89368 | 9.02766 | 30651 ft | 418 kts | 290° |
| 2026-05-04 18:40 | 50.90570 | 8.98590 | 30177 ft | 415 kts | 290° |
| 2026-05-04 18:41 | 50.91763 | 8.94443 | 29674 ft | 412 kts | 290° |
| 2026-05-04 18:41 | 50.92929 | 8.90381 | 29253 ft | 408 kts | 290° |
| 2026-05-04 18:41 | 50.94097 | 8.86303 | 28550 ft | 406 kts | 290° |
| 2026-05-04 18:41 | 50.95261 | 8.82234 | 27880 ft | 405 kts | 290° |
| 2026-05-04 18:42 | 50.96421 | 8.78173 | 27217 ft | 404 kts | 290° |
| 2026-05-04 18:42 | 50.97576 | 8.74119 | 26581 ft | 403 kts | 290° |
| 2026-05-04 18:42 | 50.98725 | 8.70083 | 26114 ft | 398 kts | 290° |
| 2026-05-04 18:42 | 50.99851 | 8.66115 | 26013 ft | 394 kts | 290° |
| 2026-05-04 18:43 | 51.01033 | 8.62182 | 25981 ft | 397 kts | 297° |
| 2026-05-04 18:43 | 51.02814 | 8.58791 | 25967 ft | 406 kts | 315° |
| 2026-05-04 18:43 | 51.05130 | 8.56177 | 25984 ft | 411 kts | 322° |
| 2026-05-04 18:43 | 51.07507 | 8.53646 | 25979 ft | 411 kts | 322° |
| 2026-05-04 18:44 | 51.09900 | 8.51128 | 25985 ft | 411 kts | 322° |
| 2026-05-04 18:44 | 51.10674 | 8.50317 | 25982 ft | 412 kts | 322° |
| 2026-05-04 18:44 | 51.14683 | 8.46135 | 25983 ft | 412 kts | 322° |
| 2026-05-04 18:44 | 51.17045 | 8.43673 | 25980 ft | 408 kts | 322° |
| 2026-05-04 18:45 | 51.19372 | 8.41246 | 25809 ft | 392 kts | 322° |
| 2026-05-04 18:45 | 51.21628 | 8.38891 | 25296 ft | 382 kts | 322° |
| 2026-05-04 18:45 | 51.23825 | 8.36593 | 24786 ft | 373 kts | 322° |
| 2026-05-04 18:45 | 51.25973 | 8.34345 | 24378 ft | 365 kts | 322° |
| 2026-05-04 18:46 | 51.28076 | 8.32141 | 23995 ft | 358 kts | 323° |
| 2026-05-04 18:46 | 51.30153 | 8.29961 | 23532 ft | 357 kts | 323° |
| 2026-05-04 18:46 | 51.32220 | 8.27791 | 23169 ft | 354 kts | 323° |
| 2026-05-04 18:46 | 51.34273 | 8.25632 | 22716 ft | 353 kts | 323° |
| 2026-05-04 18:47 | 51.36318 | 8.23480 | 22271 ft | 351 kts | 323° |
| 2026-05-04 18:47 | 51.38344 | 8.21307 | 21844 ft | 350 kts | 322° |
| 2026-05-04 18:47 | 51.40329 | 8.19154 | 21447 ft | 348 kts | 322° |
| 2026-05-04 18:47 | 51.42353 | 8.16950 | 21015 ft | 348 kts | 322° |
| 2026-05-04 18:48 | 51.44322 | 8.14799 | 20573 ft | 345 kts | 322° |
| 2026-05-04 18:48 | 51.46302 | 8.12629 | 20104 ft | 345 kts | 322° |
| 2026-05-04 18:48 | 51.48276 | 8.10457 | 19730 ft | 344 kts | 322° |
| 2026-05-04 18:48 | 51.50243 | 8.08283 | 19349 ft | 343 kts | 322° |
| 2026-05-04 18:49 | 51.52200 | 8.06113 | 18972 ft | 341 kts | 322° |
| 2026-05-04 18:49 | 51.54150 | 8.03944 | 18602 ft | 340 kts | 322° |
| 2026-05-04 18:49 | 51.56091 | 8.01774 | 18218 ft | 339 kts | 322° |
| 2026-05-04 18:49 | 51.58021 | 7.99607 | 17822 ft | 338 kts | 322° |
| 2026-05-04 18:50 | 51.59294 | 7.98173 | 17582 ft | 336 kts | 322° |
| 2026-05-04 18:50 | 51.61200 | 7.96021 | 17225 ft | 334 kts | 322° |
| 2026-05-04 18:50 | 51.63701 | 7.93182 | 16771 ft | 330 kts | 322° |
| 2026-05-04 18:50 | 51.65546 | 7.91080 | 16469 ft | 320 kts | 322° |
| 2026-05-04 18:51 | 51.67336 | 7.89040 | 16169 ft | 311 kts | 322° |
| 2026-05-04 18:51 | 51.68512 | 7.87697 | 15969 ft | 304 kts | 322° |
| 2026-05-04 18:51 | 51.70215 | 7.85750 | 15710 ft | 297 kts | 322° |
| 2026-05-04 18:51 | 51.71855 | 7.83872 | 15561 ft | 289 kts | 322° |
| 2026-05-04 18:52 | 51.73479 | 7.82010 | 15317 ft | 285 kts | 322° |
| 2026-05-04 18:52 | 51.74877 | 7.79806 | 14987 ft | 279 kts | 299° |
| 2026-05-04 18:52 | 51.75528 | 7.76938 | 14677 ft | 271 kts | 273° |
| 2026-05-04 18:52 | 51.75313 | 7.73974 | 14351 ft | 266 kts | 249° |
| 2026-05-04 18:53 | 51.74593 | 7.71244 | 14109 ft | 263 kts | 243° |
| 2026-05-04 18:53 | 51.73817 | 7.68557 | 14012 ft | 265 kts | 243° |
| 2026-05-04 18:53 | 51.73036 | 7.65860 | 13968 ft | 266 kts | 243° |
| 2026-05-04 18:53 | 51.72255 | 7.63158 | 13969 ft | 266 kts | 243° |
| 2026-05-04 18:54 | 51.71472 | 7.60453 | 13969 ft | 266 kts | 243° |
| 2026-05-04 18:54 | 51.70701 | 7.57782 | 13968 ft | 266 kts | 243° |
| 2026-05-04 18:54 | 51.69922 | 7.55080 | 13969 ft | 266 kts | 243° |
| 2026-05-04 18:54 | 51.68977 | 7.52547 | 13953 ft | 262 kts | 224° |
| 2026-05-04 18:55 | 51.67473 | 7.50974 | 13958 ft | 259 kts | 197° |
| 2026-05-04 18:55 | 51.63878 | 7.50433 | 13974 ft | 261 kts | 182° |
| 2026-05-04 18:55 | 51.62077 | 7.50681 | 13961 ft | 260 kts | 168° |
| 2026-05-04 18:56 | 51.60298 | 7.51248 | 13961 ft | 261 kts | 172° |
| 2026-05-04 18:56 | 51.58503 | 7.51668 | 13965 ft | 261 kts | 173° |
| 2026-05-04 18:56 | 51.56702 | 7.51995 | 13968 ft | 260 kts | 175° |
| 2026-05-04 18:56 | 51.54899 | 7.52261 | 13969 ft | 260 kts | 176° |
| 2026-05-04 18:57 | 51.53094 | 7.52488 | 13968 ft | 260 kts | 176° |
| 2026-05-04 18:57 | 51.51292 | 7.52695 | 13968 ft | 260 kts | 176° |
| 2026-05-04 18:57 | 51.49496 | 7.52890 | 13914 ft | 257 kts | 177° |
| 2026-05-04 18:57 | 51.47708 | 7.53074 | 13550 ft | 258 kts | 177° |
| 2026-05-04 18:58 | 51.45947 | 7.53250 | 13247 ft | 256 kts | 177° |
| 2026-05-04 18:58 | 51.44170 | 7.53401 | 12919 ft | 255 kts | 181° |
| 2026-05-04 18:58 | 51.42467 | 7.52748 | 12603 ft | 253 kts | 207° |
| 2026-05-04 18:58 | 51.41109 | 7.50973 | 12267 ft | 254 kts | 229° |
| 2026-05-04 18:59 | 51.40059 | 7.48686 | 11928 ft | 255 kts | 233° |
| 2026-05-04 18:59 | 51.39042 | 7.46370 | 11638 ft | 253 kts | 233° |
| 2026-05-04 18:59 | 51.38044 | 7.44050 | 11345 ft | 252 kts | 234° |
| 2026-05-04 18:59 | 51.37059 | 7.41731 | 11038 ft | 251 kts | 234° |
| 2026-05-04 19:00 | 51.36083 | 7.39417 | 10761 ft | 250 kts | 234° |
| 2026-05-04 19:00 | 51.35115 | 7.37111 | 10477 ft | 249 kts | 234° |
| 2026-05-04 19:00 | 51.34153 | 7.34812 | 10209 ft | 248 kts | 234° |
| 2026-05-04 19:00 | 51.33211 | 7.32561 | 10003 ft | 246 kts | 234° |
| 2026-05-04 19:01 | 51.32261 | 7.30290 | 9978 ft | 247 kts | 234° |
| 2026-05-04 19:01 | 51.31304 | 7.28001 | 9979 ft | 247 kts | 234° |
| 2026-05-04 19:01 | 51.30351 | 7.25722 | 9974 ft | 247 kts | 234° |
| 2026-05-04 19:01 | 51.29394 | 7.23438 | 9967 ft | 245 kts | 234° |
| 2026-05-04 19:02 | 51.28450 | 7.21185 | 9673 ft | 245 kts | 234° |
| 2026-05-04 19:02 | 51.27504 | 7.18930 | 9407 ft | 243 kts | 234° |
| 2026-05-04 19:02 | 51.26657 | 7.16606 | 9092 ft | 244 kts | 249° |
| 2026-05-04 19:02 | 51.26501 | 7.13929 | 8800 ft | 246 kts | 276° |
| 2026-05-04 19:03 | 51.27082 | 7.11351 | 8475 ft | 251 kts | 300° |
| 2026-05-04 19:03 | 51.28303 | 7.09362 | 8170 ft | 255 kts | 325° |
| 2026-05-04 19:03 | 51.29951 | 7.08329 | 7868 ft | 258 kts | 349° |
| 2026-05-04 19:03 | 51.31733 | 7.08429 | 7563 ft | 258 kts | 14° |
| 2026-05-04 19:04 | 51.33326 | 7.09614 | 7259 ft | 257 kts | 38° |
| 2026-05-04 19:04 | 51.34564 | 7.11646 | 7034 ft | 253 kts | 51° |
| 2026-05-04 19:04 | 51.35684 | 7.13832 | 7009 ft | 256 kts | 52° |
| 2026-05-04 19:04 | 51.36791 | 7.16065 | 6978 ft | 256 kts | 53° |
| 2026-05-04 19:05 | 51.37883 | 7.18318 | 6967 ft | 256 kts | 53° |
| 2026-05-04 19:05 | 51.38967 | 7.20581 | 6972 ft | 256 kts | 53° |
| 2026-05-04 19:05 | 51.40045 | 7.22852 | 6966 ft | 256 kts | 54° |
| 2026-05-04 19:05 | 51.41115 | 7.25125 | 6951 ft | 254 kts | 54° |
| 2026-05-04 19:06 | 51.42176 | 7.27388 | 6652 ft | 255 kts | 54° |
| 2026-05-04 19:06 | 51.43238 | 7.29657 | 6387 ft | 254 kts | 54° |
| 2026-05-04 19:06 | 51.44295 | 7.31919 | 6102 ft | 253 kts | 54° |
| 2026-05-04 19:06 | 51.45333 | 7.34148 | 5822 ft | 252 kts | 54° |
| 2026-05-04 19:07 | 51.46404 | 7.36366 | 5549 ft | 251 kts | 46° |
| 2026-05-04 19:07 | 51.47863 | 7.37834 | 5266 ft | 248 kts | 15° |
| 2026-05-04 19:07 | 51.49549 | 7.37951 | 5019 ft | 241 kts | 343° |
| 2026-05-04 19:07 | 51.51045 | 7.36813 | 4998 ft | 240 kts | 324° |
| 2026-05-04 19:08 | 51.52434 | 7.35314 | 4997 ft | 240 kts | 320° |
| 2026-05-04 19:08 | 51.53459 | 7.33287 | 4968 ft | 232 kts | 289° |
| 2026-05-04 19:08 | 51.53666 | 7.30776 | 4985 ft | 228 kts | 258° |
| 2026-05-04 19:08 | 51.53151 | 7.28387 | 5000 ft | 228 kts | 244° |
| 2026-05-04 19:09 | 51.52489 | 7.26129 | 4775 ft | 227 kts | 243° |
| 2026-05-04 19:09 | 51.51808 | 7.23842 | 4523 ft | 226 kts | 243° |
| 2026-05-04 19:09 | 51.51130 | 7.21565 | 4364 ft | 227 kts | 243° |
| 2026-05-04 19:09 | 51.50429 | 7.19290 | 4229 ft | 227 kts | 237° |
| 2026-05-04 19:10 | 51.49449 | 7.17326 | 4107 ft | 226 kts | 225° |
| 2026-05-04 19:10 | 51.48326 | 7.15570 | 3995 ft | 226 kts | 222° |
| 2026-05-04 19:10 | 51.47188 | 7.13827 | 3905 ft | 226 kts | 225° |
| 2026-05-04 19:10 | 51.46122 | 7.11970 | 3836 ft | 226 kts | 228° |
| 2026-05-04 19:11 | 51.45113 | 7.10031 | 3737 ft | 226 kts | 230° |
| 2026-05-04 19:11 | 51.44137 | 7.08049 | 3656 ft | 227 kts | 231° |
| 2026-05-04 19:11 | 51.43176 | 7.06047 | 3568 ft | 227 kts | 232° |
| 2026-05-04 19:11 | 51.42221 | 7.04039 | 3483 ft | 227 kts | 232° |
| 2026-05-04 19:12 | 51.41267 | 7.02029 | 3398 ft | 227 kts | 231° |
| 2026-05-04 19:12 | 51.39407 | 6.98105 | 3226 ft | 213 kts | 231° |
| 2026-05-04 19:12 | 51.38533 | 6.96260 | 2998 ft | 210 kts | 231° |
| 2026-05-04 19:13 | 51.37652 | 6.94405 | 2761 ft | 209 kts | 231° |
| 2026-05-04 19:13 | 51.36787 | 6.92578 | 2505 ft | 202 kts | 231° |
| 2026-05-04 19:13 | 51.35927 | 6.90766 | 2198 ft | 194 kts | 231° |
| 2026-05-04 19:13 | 51.35145 | 6.89118 | 1959 ft | 193 kts | 231° |
| 2026-05-04 19:14 | 51.34345 | 6.87433 | 1720 ft | 182 kts | 231° |
| 2026-05-04 19:14 | 51.33629 | 6.85925 | 1469 ft | 159 kts | 231° |
| 2026-05-04 19:14 | 51.32997 | 6.84593 | 1254 ft | 142 kts | 231° |
| 2026-05-04 19:14 | 51.32419 | 6.83377 | 1057 ft | 135 kts | 230° |
| 2026-05-04 19:15 | 51.31849 | 6.82178 | 885 ft | 135 kts | 230° |
| 2026-05-04 19:15 | 51.31281 | 6.80983 | 703 ft | 135 kts | 230° |
| 2026-05-04 19:15 | 51.30713 | 6.79790 | 518 ft | 135 kts | 230° |
| 2026-05-04 19:15 | 51.30141 | 6.78586 | 351 ft | 137 kts | 231° |
| 2026-05-04 19:16 | 51.29569 | 6.77384 | 172 ft | 136 kts | 230° |
| 2026-05-04 19:16 | 51.29056 | 6.76317 | 138 ft | 100 kts | 233° |
| 2026-05-04 19:16 | 51.28779 | 6.75758 | 132 ft | 33 kts | 211° |
| 2026-05-04 19:16 | 51.28608 | 6.75680 | 128 ft | 19 kts | 178° |
| 2026-05-04 19:17 | 51.28542 | 6.75702 | 124 ft | 5 kts | 160° |
| 2026-05-04 19:17 | 51.28540 | 6.75703 | 124 ft | 0 kts | 160° |
| 2026-05-04 19:17 | 51.28527 | 6.75712 | 126 ft | 4 kts | 156° |
| 2026-05-04 19:18 | 51.28525 | 6.75713 | 126 ft | 0 kts | 155° |
| 2026-05-04 19:22 | 51.28522 | 6.75715 | 127 ft | 2 kts | 155° |
| 2026-05-04 19:22 | 51.28495 | 6.75739 | 128 ft | 8 kts | 147° |
| 2026-05-04 19:23 | 51.28451 | 6.75789 | 126 ft | 8 kts | 143° |